createdAt,value
2018-05-11T00:02:03.370Z,13.80
2018-05-11T00:04:30.917Z,13.70
2018-05-11T00:06:57.980Z,13.70
2018-05-11T00:09:27.941Z,13.70
2018-05-11T00:11:56.547Z,13.60
2018-05-11T00:14:22.843Z,13.60
2018-05-11T00:16:49.321Z,13.60
2018-05-11T00:19:15.924Z,13.60
2018-05-11T00:21:42.415Z,13.50
2018-05-11T00:24:08.776Z,13.50
2018-05-11T00:26:36.598Z,13.50
2018-05-11T00:29:03.966Z,13.50
2018-05-11T00:31:30.292Z,13.40
2018-05-11T00:33:57.342Z,13.40
2018-05-11T00:36:23.609Z,13.40
2018-05-11T00:38:49.865Z,13.40
2018-05-11T00:41:16.224Z,13.30
2018-05-11T00:43:43.330Z,13.30
2018-05-11T00:46:09.657Z,13.30
2018-05-11T00:48:35.933Z,13.30
2018-05-11T00:51:02.262Z,13.20
2018-05-11T00:53:28.600Z,13.20
2018-05-11T00:55:54.960Z,13.20
2018-05-11T00:58:22.548Z,13.10
2018-05-11T01:00:50.345Z,13.10
2018-05-11T01:03:16.603Z,13.10
2018-05-11T01:05:42.928Z,13.00
2018-05-11T01:08:09.972Z,13.00
2018-05-11T01:10:36.856Z,13.00
2018-05-11T01:13:03.125Z,13.00
2018-05-11T01:15:29.450Z,13.00
2018-05-11T01:18:00.178Z,12.90
2018-05-11T01:20:27.960Z,12.90
2018-05-11T01:22:54.532Z,12.90
2018-05-11T01:25:20.892Z,12.90
2018-05-11T01:27:47.322Z,12.90
2018-05-11T01:30:13.670Z,12.80
2018-05-11T01:32:40.208Z,12.80
2018-05-11T01:35:07.341Z,12.70
2018-05-11T01:37:33.718Z,12.70
2018-05-11T01:40:00.019Z,12.70
2018-05-11T01:42:26.398Z,12.70
2018-05-11T01:44:53.470Z,12.70
2018-05-11T01:47:19.784Z,12.70
2018-05-11T01:49:46.260Z,12.60
2018-05-11T01:52:12.614Z,12.60
2018-05-11T01:54:39.024Z,12.60
2018-05-11T01:57:05.428Z,12.60
2018-05-11T01:59:32.922Z,12.50
2018-05-11T02:01:59.236Z,12.50
2018-05-11T02:04:25.553Z,12.50
2018-05-11T02:06:51.908Z,12.50
2018-05-11T02:09:18.962Z,12.40
2018-05-11T02:11:45.395Z,12.40
2018-05-11T02:14:11.768Z,12.40
2018-05-11T02:16:38.092Z,12.40
2018-05-11T02:19:04.493Z,12.40
2018-05-11T02:21:30.875Z,12.30
2018-05-11T02:23:57.229Z,12.30
2018-05-11T02:26:23.545Z,12.30
2018-05-11T02:28:50.023Z,12.30
2018-05-11T02:31:17.083Z,12.20
2018-05-11T02:33:43.784Z,12.20
2018-05-11T02:36:10.863Z,12.20
2018-05-11T02:38:38.129Z,12.20
2018-05-11T02:41:04.444Z,12.10
2018-05-11T02:43:31.606Z,12.10
2018-05-11T02:45:57.899Z,12.10
2018-05-11T02:48:24.276Z,12.10
2018-05-11T02:50:50.618Z,12.10
2018-05-11T02:53:16.981Z,12.00
2018-05-11T02:55:43.320Z,12.00
2018-05-11T02:58:09.633Z,12.00
2018-05-11T03:00:36.111Z,12.00
2018-05-11T03:03:02.549Z,12.00
2018-05-11T03:05:29.610Z,11.90
2018-05-11T03:07:56.784Z,11.90
2018-05-11T03:10:23.326Z,11.90
2018-05-11T03:12:49.670Z,11.90
2018-05-11T03:15:16.026Z,11.90
2018-05-11T03:17:42.308Z,11.90
2018-05-11T03:20:08.664Z,11.80
2018-05-11T03:22:35.007Z,11.80
2018-05-11T03:25:01.316Z,11.80
2018-05-11T03:27:27.678Z,11.80
2018-05-11T03:29:54.797Z,11.70
2018-05-11T03:32:21.187Z,11.70
2018-05-11T03:34:47.479Z,11.70
2018-05-11T03:37:13.799Z,11.70
2018-05-11T03:39:40.052Z,11.70
2018-05-11T03:42:06.573Z,11.70
2018-05-11T03:44:33.871Z,11.60
2018-05-11T03:47:01.063Z,11.60
2018-05-11T03:49:27.444Z,11.60
2018-05-11T03:51:53.764Z,11.60
2018-05-11T03:54:20.791Z,11.60
2018-05-11T03:56:47.215Z,11.60
2018-05-11T03:59:13.565Z,11.50
2018-05-11T04:01:39.925Z,11.50
2018-05-11T04:04:06.299Z,11.50
2018-05-11T04:06:32.665Z,11.50
2018-05-11T04:08:59.019Z,11.40
2018-05-11T04:11:25.425Z,11.50
2018-05-11T04:13:51.723Z,11.40
2018-05-11T04:16:18.809Z,11.40
2018-05-11T04:18:45.189Z,11.40
2018-05-11T04:21:11.620Z,11.40
2018-05-11T04:23:39.351Z,11.40
2018-05-11T04:26:06.233Z,11.30
2018-05-11T04:28:33.348Z,11.30
2018-05-11T04:30:59.751Z,11.30
2018-05-11T04:33:26.071Z,11.30
2018-05-11T04:35:53.114Z,11.30
2018-05-11T04:38:20.219Z,11.30
2018-05-11T04:40:46.624Z,11.20
2018-05-11T04:43:13.050Z,11.30
2018-05-11T04:45:39.489Z,11.20
2018-05-11T04:48:07.046Z,11.20
2018-05-11T04:50:34.213Z,11.20
2018-05-11T04:53:01.369Z,11.20
2018-05-11T04:55:28.286Z,11.20
2018-05-11T04:57:54.644Z,11.20
2018-05-11T05:00:20.975Z,11.20
2018-05-11T05:02:48.007Z,11.20
2018-05-11T05:05:15.063Z,11.20
2018-05-11T05:07:41.806Z,11.20
2018-05-11T05:10:08.173Z,11.20
2018-05-11T05:12:35.402Z,11.20
2018-05-11T05:15:01.710Z,11.10
2018-05-11T05:17:28.869Z,11.20
2018-05-11T05:19:55.258Z,11.10
2018-05-11T05:22:21.799Z,11.20
2018-05-11T05:24:48.180Z,11.20
2018-05-11T05:27:14.479Z,11.30
2018-05-11T05:29:40.841Z,11.30
2018-05-11T05:32:07.271Z,11.40
2018-05-11T05:34:33.600Z,11.40
2018-05-11T05:37:00.038Z,11.50
2018-05-11T05:39:26.417Z,11.50
2018-05-11T05:41:53.383Z,11.60
2018-05-11T05:44:19.858Z,11.60
2018-05-11T05:46:46.228Z,11.70
2018-05-11T05:49:12.619Z,11.70
2018-05-11T05:51:39.759Z,11.80
2018-05-11T05:54:06.841Z,11.90
2018-05-11T05:56:33.192Z,11.80
2018-05-11T05:58:59.693Z,11.90
2018-05-11T06:01:26.065Z,11.90
2018-05-11T06:03:52.382Z,12.00
2018-05-11T06:06:18.957Z,12.00
2018-05-11T06:08:45.414Z,12.10
2018-05-11T06:11:11.975Z,12.20
2018-05-11T06:13:38.832Z,12.30
2018-05-11T06:16:05.177Z,12.40
2018-05-11T06:18:31.558Z,12.40
2018-05-11T06:20:58.627Z,12.60
2018-05-11T06:23:24.968Z,12.60
2018-05-11T06:25:51.396Z,12.70
2018-05-11T06:28:18.489Z,12.90
2018-05-11T06:30:44.879Z,12.80
2018-05-11T06:33:11.222Z,12.90
2018-05-11T06:35:37.561Z,13.00
2018-05-11T06:38:03.955Z,13.10
2018-05-11T06:40:30.427Z,13.20
2018-05-11T06:42:56.748Z,13.30
2018-05-11T06:45:23.121Z,13.30
2018-05-11T06:47:49.530Z,13.40
2018-05-11T06:50:15.896Z,13.50
2018-05-11T06:52:42.224Z,13.50
2018-05-11T06:55:08.524Z,13.60
2018-05-11T06:57:34.925Z,13.70
2018-05-11T07:00:01.265Z,13.70
2018-05-11T07:02:28.299Z,13.80
2018-05-11T07:04:54.783Z,13.80
2018-05-11T07:07:21.828Z,13.90
2018-05-11T07:09:48.184Z,13.90
2018-05-11T07:12:14.477Z,14.00
2018-05-11T07:14:40.848Z,14.00
2018-05-11T07:17:07.175Z,14.10
2018-05-11T07:19:33.577Z,14.20
2018-05-11T07:22:00.577Z,14.30
2018-05-11T07:24:26.913Z,14.20
2018-05-11T07:26:53.234Z,14.30
2018-05-11T07:29:19.572Z,14.40
2018-05-11T07:31:45.934Z,14.50
2018-05-11T07:34:13.043Z,14.60
2018-05-11T07:36:39.410Z,14.50
2018-05-11T07:39:10.707Z,14.60
2018-05-11T07:41:37.142Z,14.70
2018-05-11T07:44:04.324Z,14.80
2018-05-11T07:46:30.786Z,14.80
2018-05-11T07:48:57.126Z,14.80
2018-05-11T07:51:23.460Z,14.90
2018-05-11T07:53:49.846Z,15.00
2018-05-11T07:56:16.148Z,15.00
2018-05-11T07:58:42.510Z,15.10
2018-05-11T08:01:08.842Z,15.20
2018-05-11T08:03:35.922Z,15.20
2018-05-11T08:06:03.081Z,15.30
2018-05-11T08:08:29.409Z,15.30
2018-05-11T08:10:56.500Z,15.40
2018-05-11T08:13:22.897Z,15.40
2018-05-11T08:15:49.974Z,15.50
2018-05-11T08:18:16.332Z,15.50
2018-05-11T08:20:42.648Z,15.60
2018-05-11T08:23:09.004Z,15.60
2018-05-11T08:25:35.377Z,15.70
2018-05-11T08:28:01.826Z,15.70
2018-05-11T08:30:28.165Z,15.80
2018-05-11T08:32:54.545Z,15.80
2018-05-11T08:35:20.938Z,15.90
2018-05-11T08:37:47.311Z,15.90
2018-05-11T08:40:14.395Z,16.00
2018-05-11T08:42:40.757Z,16.00
2018-05-11T08:45:07.138Z,16.10
2018-05-11T08:47:33.561Z,16.10
2018-05-11T08:49:59.905Z,16.20
2018-05-11T08:52:26.340Z,16.30
2018-05-11T08:54:52.673Z,16.30
2018-05-11T08:57:19.836Z,16.40
2018-05-11T08:59:46.158Z,16.40
2018-05-11T09:02:13.260Z,16.60
2018-05-11T09:04:39.658Z,16.50
2018-05-11T09:07:06.715Z,16.70
2018-05-11T09:09:33.778Z,16.70
2018-05-11T09:12:00.842Z,16.80
2018-05-11T09:14:27.217Z,16.80
2018-05-11T09:16:53.668Z,16.80
2018-05-11T09:19:20.048Z,16.90
2018-05-11T09:21:46.429Z,17.00
2018-05-11T09:24:13.624Z,17.10
2018-05-11T09:26:40.039Z,17.10
2018-05-11T09:29:06.363Z,17.20
2018-05-11T09:31:32.718Z,17.20
2018-05-11T09:33:59.117Z,17.30
2018-05-11T09:36:26.205Z,17.40
2018-05-11T09:38:53.979Z,17.40
2018-05-11T09:41:20.371Z,17.40
2018-05-11T09:43:47.521Z,17.60
2018-05-11T09:46:13.864Z,17.50
2018-05-11T09:48:40.235Z,17.70
2018-05-11T09:51:06.585Z,17.70
2018-05-11T09:53:32.890Z,17.80
2018-05-11T09:55:59.237Z,17.80
2018-05-11T09:58:35.622Z,17.90
2018-05-11T10:01:04.846Z,17.90
2018-05-11T10:03:31.973Z,18.00
2018-05-11T10:05:58.302Z,18.00
2018-05-11T10:08:24.739Z,18.10
2018-05-11T10:10:51.051Z,18.20
2018-05-11T10:13:17.375Z,18.20
2018-05-11T10:15:43.764Z,18.30
2018-05-11T10:18:10.814Z,18.40
2018-05-11T10:20:37.208Z,18.30
2018-05-11T10:23:03.547Z,18.40
2018-05-11T10:25:29.908Z,18.50
2018-05-11T10:27:56.339Z,18.50
2018-05-11T10:30:24.181Z,18.60
2018-05-11T10:32:50.561Z,18.60
2018-05-11T10:35:17.647Z,18.70
2018-05-11T10:37:43.970Z,18.70
2018-05-11T10:40:10.380Z,18.80
2018-05-11T10:42:37.573Z,18.90
2018-05-11T10:45:03.979Z,18.90
2018-05-11T10:47:30.392Z,18.90
2018-05-11T10:49:56.731Z,19.00
2018-05-11T10:52:23.127Z,19.00
2018-05-11T10:54:49.452Z,19.10
2018-05-11T10:57:15.906Z,19.10
2018-05-11T10:59:42.312Z,19.20
2018-05-11T11:02:08.712Z,19.20
2018-05-11T11:04:35.132Z,19.30
2018-05-11T11:07:01.480Z,19.30
2018-05-11T11:09:27.945Z,19.40
2018-05-11T11:11:55.007Z,19.40
2018-05-11T11:14:21.362Z,19.40
2018-05-11T11:16:47.746Z,19.50
2018-05-11T11:19:14.102Z,19.50
2018-05-11T11:21:40.391Z,19.60
2018-05-11T11:24:06.713Z,19.60
2018-05-11T11:26:36.462Z,19.70
2018-05-11T11:29:03.601Z,19.80
2018-05-11T11:31:29.926Z,19.70
2018-05-11T11:33:56.292Z,19.80
2018-05-11T11:36:22.606Z,19.80
2018-05-11T11:44:22.052Z,20.00
2018-05-11T11:46:48.458Z,20.00
2018-05-11T11:49:14.807Z,20.10
2018-05-11T11:51:41.875Z,20.10
2018-05-11T11:54:08.192Z,20.10
2018-05-11T11:56:34.599Z,20.20
2018-05-11T11:59:00.945Z,20.20
2018-05-11T12:01:27.297Z,20.30
2018-05-11T12:03:54.301Z,20.30
2018-05-11T12:06:21.551Z,20.30
2018-05-11T12:08:48.666Z,20.40
2018-05-11T12:11:14.997Z,20.40
2018-05-11T12:13:41.373Z,20.50
2018-05-11T12:16:07.687Z,20.50
2018-05-11T12:18:34.061Z,20.50
2018-05-11T12:21:00.375Z,20.60
2018-05-11T12:23:28.193Z,20.60
2018-05-11T12:25:54.509Z,20.60
2018-05-11T12:28:21.806Z,20.70
2018-05-11T12:30:49.046Z,20.70
2018-05-11T12:33:16.033Z,20.70
2018-05-11T12:35:42.348Z,20.80
2018-05-11T12:38:09.444Z,20.80
2018-05-11T12:40:35.762Z,20.80
2018-05-11T12:43:02.226Z,20.90
2018-05-11T12:45:28.604Z,20.90
2018-05-11T12:47:55.072Z,20.90
2018-05-11T12:50:21.394Z,20.90
2018-05-11T12:52:48.611Z,21.00
2018-05-11T12:55:15.626Z,21.10
2018-05-11T12:57:42.097Z,21.00
2018-05-11T13:00:08.520Z,21.10
2018-05-11T13:02:34.885Z,21.10
2018-05-11T13:05:01.218Z,21.20
2018-05-11T13:07:27.582Z,21.20
2018-05-11T13:09:53.926Z,21.20
2018-05-11T13:12:20.524Z,21.20
2018-05-11T13:14:46.869Z,21.30
2018-05-11T13:17:13.208Z,21.30
2018-05-11T13:19:39.601Z,21.30
2018-05-11T13:22:05.891Z,21.40
2018-05-11T13:24:32.361Z,21.40
2018-05-11T13:26:58.747Z,21.40
2018-05-11T13:29:25.802Z,21.50
2018-05-11T13:31:52.226Z,21.50
2018-05-11T13:34:19.304Z,21.60
2018-05-11T13:36:45.727Z,21.60
2018-05-11T13:39:12.092Z,21.60
2018-05-11T13:41:38.467Z,21.60
2018-05-11T13:44:05.553Z,21.70
2018-05-11T13:46:31.863Z,21.70
2018-05-11T13:48:58.231Z,21.70
2018-05-11T13:51:24.613Z,21.80
2018-05-11T13:53:50.909Z,21.80
2018-05-11T13:56:17.395Z,21.80
2018-05-11T13:58:43.691Z,21.90
2018-05-11T14:01:10.881Z,21.90
2018-05-11T14:03:37.229Z,21.90
2018-05-11T14:06:04.265Z,22.00
2018-05-11T14:08:31.408Z,22.00
2018-05-11T14:10:57.893Z,22.00
2018-05-11T14:13:24.312Z,22.00
2018-05-11T14:15:50.637Z,22.00
2018-05-11T14:18:17.686Z,22.10
2018-05-11T14:20:44.035Z,22.10
2018-05-11T14:23:10.379Z,22.10
2018-05-11T14:25:36.743Z,22.20
2018-05-11T14:28:03.084Z,22.20
2018-05-11T14:30:30.187Z,22.20
2018-05-11T14:32:56.514Z,22.20
2018-05-11T14:35:22.889Z,22.20
2018-05-11T14:37:49.261Z,22.30
2018-05-11T14:40:15.622Z,22.30
2018-05-11T14:42:42.085Z,22.40
2018-05-11T14:45:08.467Z,22.30
2018-05-11T14:47:34.847Z,22.40
2018-05-11T14:50:02.023Z,22.50
2018-05-11T14:52:28.371Z,22.40
2018-05-11T14:54:54.772Z,22.50
2018-05-11T14:57:21.149Z,22.50
2018-05-11T14:59:47.616Z,22.50
2018-05-11T15:02:13.922Z,22.50
2018-05-11T15:04:41.042Z,22.50
2018-05-11T15:07:07.422Z,22.60
2018-05-11T15:09:33.762Z,22.60
2018-05-11T15:12:00.111Z,22.60
2018-05-11T15:14:26.408Z,22.60
2018-05-11T15:16:52.713Z,22.60
2018-05-11T15:19:19.754Z,22.70
2018-05-11T15:21:46.866Z,22.70
2018-05-11T15:24:13.232Z,22.70
2018-05-11T15:26:40.279Z,22.80
2018-05-11T15:29:07.397Z,22.80
2018-05-11T15:31:33.715Z,22.80
2018-05-11T15:34:00.070Z,22.80
2018-05-11T15:36:26.409Z,22.80
2018-05-11T15:38:52.835Z,22.80
2018-05-11T15:41:19.135Z,22.80
2018-05-11T15:43:45.484Z,22.90
2018-05-11T15:46:11.851Z,22.90
2018-05-11T15:48:38.204Z,22.90
2018-05-11T15:51:04.563Z,22.90
2018-05-11T15:53:30.885Z,22.90
2018-05-11T15:55:57.180Z,23.00
2018-05-11T15:58:23.518Z,23.00
2018-05-11T16:00:50.013Z,23.10
2018-05-11T16:03:16.392Z,23.10
2018-05-11T16:05:42.792Z,23.10
2018-05-11T16:08:09.207Z,23.10
2018-05-11T16:10:35.544Z,23.10
2018-05-11T16:13:01.919Z,23.20
2018-05-11T16:15:28.282Z,23.20
2018-05-11T16:17:55.380Z,23.20
2018-05-11T16:20:21.700Z,23.30
2018-05-11T16:22:48.100Z,23.30
2018-05-11T16:25:14.682Z,23.30
2018-05-11T16:27:41.038Z,23.30
2018-05-11T16:30:07.503Z,23.40
2018-05-11T16:32:34.599Z,23.40
2018-05-11T16:35:00.944Z,23.40
2018-05-11T16:37:27.352Z,23.40
2018-05-11T16:39:53.744Z,23.40
2018-05-11T16:42:20.214Z,23.40
2018-05-11T16:44:46.592Z,23.40
2018-05-11T16:47:12.914Z,23.40
2018-05-11T16:49:39.402Z,23.50
2018-05-11T16:52:05.879Z,23.50
2018-05-11T16:54:32.181Z,23.50
2018-05-11T16:56:59.437Z,23.50
2018-05-11T16:59:25.899Z,23.50
2018-05-11T17:01:52.305Z,23.50
2018-05-11T17:04:18.706Z,23.50
2018-05-11T17:06:45.121Z,23.50
2018-05-11T17:09:11.441Z,23.50
2018-05-11T17:11:37.763Z,23.40
2018-05-11T17:14:04.084Z,23.50
2018-05-11T17:16:30.494Z,23.50
2018-05-11T17:18:56.787Z,23.40
2018-05-11T17:21:23.200Z,23.40
2018-05-11T17:23:49.644Z,23.40
2018-05-11T17:26:16.227Z,23.40
2018-05-11T17:28:42.652Z,23.40
2018-05-11T17:31:09.064Z,23.40
2018-05-11T17:33:36.210Z,23.30
2018-05-11T17:36:02.594Z,23.30
2018-05-11T17:38:28.913Z,23.30
2018-05-11T17:40:55.301Z,23.30
2018-05-11T17:43:21.693Z,23.30
2018-05-11T17:45:49.519Z,23.20
2018-05-11T17:48:15.989Z,23.20
2018-05-11T17:50:42.351Z,23.20
2018-05-11T17:53:08.735Z,23.20
2018-05-11T17:55:35.835Z,23.20
2018-05-11T17:58:02.309Z,23.10
2018-05-11T18:00:28.656Z,23.10
2018-05-11T18:02:55.619Z,23.10
2018-05-11T18:05:22.001Z,23.10
2018-05-11T18:07:48.363Z,23.10
2018-05-11T18:10:14.754Z,23.00
2018-05-11T18:12:41.832Z,23.00
2018-05-11T18:15:08.988Z,23.00
2018-05-11T18:17:35.422Z,22.90
2018-05-11T18:20:01.794Z,22.90
2018-05-11T18:22:28.209Z,22.90
2018-05-11T18:24:54.634Z,22.90
2018-05-11T18:27:20.974Z,22.80
2018-05-11T18:29:47.334Z,22.80
2018-05-11T18:32:13.747Z,22.80
2018-05-11T18:34:40.102Z,22.70
2018-05-11T18:37:06.539Z,22.70
2018-05-11T18:39:32.869Z,22.70
2018-05-11T18:41:59.328Z,22.60
2018-05-11T18:44:25.650Z,22.60
2018-05-11T18:46:52.140Z,22.50
2018-05-11T18:49:18.507Z,22.50
2018-05-11T18:51:44.885Z,22.50
2018-05-11T18:54:12.271Z,22.40
2018-05-11T18:56:38.529Z,22.40
2018-05-11T18:59:08.061Z,22.30
2018-05-11T19:01:34.508Z,22.30
2018-05-11T19:04:00.982Z,22.30
2018-05-11T19:06:27.324Z,22.20
2018-05-11T19:08:53.804Z,22.20
2018-05-11T19:11:20.020Z,22.10
2018-05-11T19:13:46.467Z,22.10
2018-05-11T19:16:12.817Z,22.00
2018-05-11T19:18:39.201Z,22.00
2018-05-11T19:21:05.590Z,21.90
2018-05-11T19:23:31.987Z,21.90
2018-05-11T19:25:58.498Z,21.80
2018-05-11T19:28:24.818Z,21.80
2018-05-11T19:30:51.247Z,21.70
2018-05-11T19:33:18.401Z,21.60
2018-05-11T19:35:45.553Z,21.60
2018-05-11T19:38:11.917Z,21.50
2018-05-11T19:40:38.239Z,21.50
2018-05-11T19:43:05.417Z,21.40
2018-05-11T19:45:31.855Z,21.40
2018-05-11T19:47:58.356Z,21.40
2018-05-11T19:50:25.711Z,21.30
2018-05-11T19:52:53.475Z,21.20
2018-05-11T19:55:19.781Z,21.20
2018-05-11T19:57:46.209Z,21.10
2018-05-11T20:00:12.980Z,21.10
2018-05-11T20:02:40.310Z,21.00
2018-05-11T20:05:06.705Z,21.00
2018-05-11T20:07:33.200Z,20.90
2018-05-11T20:09:59.646Z,20.90
2018-05-11T20:12:26.708Z,20.80
2018-05-11T20:14:53.172Z,20.80
2018-05-11T20:17:19.605Z,20.70
2018-05-11T20:19:46.004Z,20.70
2018-05-11T20:22:12.387Z,20.60
2018-05-11T20:24:39.239Z,20.50
2018-05-11T20:27:05.553Z,20.50
2018-05-11T20:29:31.866Z,20.50
2018-05-11T20:31:58.276Z,20.40
2018-05-11T20:34:25.349Z,20.30
2018-05-11T20:36:51.750Z,20.30
2018-05-11T20:39:18.805Z,20.20
2018-05-11T20:41:45.941Z,20.20
2018-05-11T20:44:13.198Z,20.10
2018-05-11T20:46:39.682Z,20.10
2018-05-11T20:49:06.221Z,20.00
2018-05-11T20:51:33.262Z,19.90
2018-05-11T20:53:59.702Z,19.90
2018-05-11T20:56:26.143Z,19.90
2018-05-11T20:58:52.556Z,19.80
2018-05-11T21:01:18.929Z,19.80
2018-05-11T21:03:45.282Z,19.70
2018-05-11T21:06:11.617Z,19.70
2018-05-11T21:08:37.937Z,19.60
2018-05-11T21:11:04.300Z,19.60
2018-05-11T21:13:31.428Z,19.50
2018-05-11T21:15:57.776Z,19.40
2018-05-11T21:18:24.760Z,19.40
2018-05-11T21:20:51.085Z,19.40
2018-05-11T21:23:17.461Z,19.30
2018-05-11T21:25:43.793Z,19.30
2018-05-11T21:28:11.056Z,19.20
2018-05-11T21:30:38.089Z,19.20
2018-05-11T21:33:04.399Z,19.10
2018-05-11T21:35:30.722Z,19.10
2018-05-11T21:37:57.103Z,19.00
2018-05-11T21:40:23.518Z,19.00
2018-05-11T21:42:50.045Z,18.90
2018-05-11T21:45:16.506Z,18.90
2018-05-11T21:47:43.617Z,18.80
2018-05-11T21:50:10.721Z,18.70
2018-05-11T21:52:37.110Z,18.70
2018-05-11T21:55:03.397Z,18.70
2018-05-11T21:57:29.829Z,18.60
2018-05-11T21:59:57.142Z,18.50
2018-05-11T22:02:24.511Z,18.50
2018-05-11T22:04:50.869Z,18.50
2018-05-11T22:07:17.203Z,18.40
2018-05-11T22:09:44.088Z,18.40
2018-05-11T22:12:10.453Z,18.40
2018-05-11T22:14:38.530Z,18.30
2018-05-11T22:17:07.117Z,18.30
2018-05-11T22:19:34.137Z,18.20
2018-05-11T22:22:00.685Z,18.20
2018-05-11T22:24:27.102Z,18.10
2018-05-11T22:26:53.512Z,18.10
2018-05-11T22:29:20.577Z,18.00
2018-05-11T22:31:47.590Z,18.00
2018-05-11T22:34:13.906Z,18.00
2018-05-11T22:36:40.277Z,17.90
2018-05-11T22:39:06.746Z,17.90
2018-05-11T22:41:33.067Z,17.90
2018-05-11T22:44:00.229Z,17.80
2018-05-11T22:46:26.572Z,17.80
2018-05-11T22:48:52.905Z,17.70
2018-05-11T22:51:19.223Z,17.70
2018-05-11T22:53:45.548Z,17.70
2018-05-11T22:56:11.911Z,17.60
2018-05-11T22:58:38.388Z,17.60
2018-05-11T23:01:04.877Z,17.50
2018-05-11T23:03:31.211Z,17.50
2018-05-11T23:05:57.533Z,17.40
2018-05-11T23:08:24.004Z,17.40
2018-05-11T23:10:51.164Z,17.30
2018-05-11T23:13:17.539Z,17.30
2018-05-11T23:15:44.191Z,17.30
2018-05-11T23:18:10.554Z,17.30
2018-05-11T23:20:37.058Z,17.30
2018-05-11T23:23:03.346Z,17.20
2018-05-11T23:25:29.677Z,17.20
2018-05-11T23:27:56.089Z,17.20
2018-05-11T23:30:22.558Z,17.10
2018-05-11T23:32:48.914Z,17.10
2018-05-11T23:35:15.250Z,17.00
2018-05-11T23:37:42.406Z,17.00
2018-05-11T23:40:08.861Z,16.90
2018-05-11T23:42:35.220Z,16.90
2018-05-11T23:45:01.528Z,16.90
2018-05-11T23:47:29.384Z,16.80
2018-05-11T23:49:56.562Z,16.80
2018-05-11T23:52:22.890Z,16.80
2018-05-11T23:54:49.276Z,16.80
2018-05-11T23:57:16.343Z,16.80
2018-05-11T23:59:43.432Z,16.70
